Overview Statistics Trail Chart Weather Telemetry Raw packets
 

This is the latest recevied weather packets stored in our database for station/object xx2mm-11. If no packets are shown the sender has not sent any weather packets the latest 10 day(s).

<< 341 342 343 344 345 346 347 >>
Time Temp. Humidity Pressure Rain* Wind** Luminosity Snow
1777095068 22.78° C 58% 1010.9 hPa - - - -
1777094997 22.78° C 59% 1010.9 hPa - - - -
1777094928 22.78° C 59% 1010.9 hPa - - - -
1777094859 23.33° C 57% 1011 hPa - - - -
1777094790 23.33° C 56% 1011 hPa - - - -
1777094719 23.33° C 56% 1011 hPa - - - -
1777094650 23.33° C 56% 1011 hPa - - - -
1777094498 23.33° C 55% 1011.1 hPa - - - -
1777094426 22.78° C 59% 1011.1 hPa - - - -
1777094357 23.33° C 58% 1011.1 hPa - - - -
1777094288 23.89° C 54% 1011.1 hPa - - - -
1777094217 23.89° C 54% 1011.1 hPa - - - -
1777094148 23.89° C 56% 1011.2 hPa - - - -
1777094078 22.78° C 59% 1011.2 hPa - - - -
1777094009 22.78° C 59% 1011.2 hPa - - - -
1777093939 23.33° C 59% 1011.2 hPa - - - -
1777093864 22.78° C 60% 1011.2 hPa - - - -
1777093795 22.78° C 59% 1011.3 hPa - - - -
1777093718 23.33° C 57% 1011.3 hPa - - - -
1777093564 23.89° C 55% 1011.3 hPa - - - -
1777093492 23.89° C 56% 1011.3 hPa - - - -
1777093262 23.33° C 55% 1011.3 hPa - - - -
1777093194 23.33° C 56% 1011.3 hPa - - - -
1777093125 23.89° C 55% 1011.3 hPa - - - -
1777093054 23.33° C 56% 1011.4 hPa - - - -

* Rain since midnight (hover to see other rain measurements)
** Current wind speed in m/s (hover to see current wind gust speed)